sensor_id;sensor_type;location;lat;lon;timestamp;P1;durP1;ratioP1;P2;durP2;ratioP2
27802;SDS011;15182;48.174;11.562;2023-09-18T00:01:02;4.00;;;3.67;;
27802;SDS011;15182;48.174;11.562;2023-09-18T00:03:31;3.58;;;3.47;;
27802;SDS011;15182;48.174;11.562;2023-09-18T00:05:59;3.30;;;3.15;;
27802;SDS011;15182;48.174;11.562;2023-09-18T00:08:27;3.40;;;3.30;;
27802;SDS011;15182;48.174;11.562;2023-09-18T00:10:55;3.60;;;3.50;;
27802;SDS011;15182;48.174;11.562;2023-09-18T00:13:23;3.22;;;3.13;;
27802;SDS011;15182;48.174;11.562;2023-09-18T00:15:53;3.30;;;3.20;;
27802;SDS011;15182;48.174;11.562;2023-09-18T00:18:26;3.53;;;3.35;;
27802;SDS011;15182;48.174;11.562;2023-09-18T00:20:54;3.35;;;3.25;;
27802;SDS011;15182;48.174;11.562;2023-09-18T00:23:22;3.10;;;3.05;;
27802;SDS011;15182;48.174;11.562;2023-09-18T00:25:50;3.67;;;3.58;;
27802;SDS011;15182;48.174;11.562;2023-09-18T00:28:18;3.42;;;3.22;;
27802;SDS011;15182;48.174;11.562;2023-09-18T00:30:49;3.95;;;3.70;;
27802;SDS011;15182;48.174;11.562;2023-09-18T00:33:17;3.28;;;3.20;;
27802;SDS011;15182;48.174;11.562;2023-09-18T00:35:47;2.97;;;2.88;;
27802;SDS011;15182;48.174;11.562;2023-09-18T00:38:16;3.72;;;3.50;;
27802;SDS011;15182;48.174;11.562;2023-09-18T00:40:45;3.03;;;2.92;;
27802;SDS011;15182;48.174;11.562;2023-09-18T00:43:13;3.50;;;3.30;;
27802;SDS011;15182;48.174;11.562;2023-09-18T00:45:42;3.08;;;2.97;;
27802;SDS011;15182;48.174;11.562;2023-09-18T00:48:12;3.03;;;2.92;;
27802;SDS011;15182;48.174;11.562;2023-09-18T00:50:42;3.03;;;3.03;;
27802;SDS011;15182;48.174;11.562;2023-09-18T00:53:14;3.45;;;3.17;;
27802;SDS011;15182;48.174;11.562;2023-09-18T00:55:45;3.50;;;3.30;;
27802;SDS011;15182;48.174;11.562;2023-09-18T00:58:13;3.20;;;3.10;;
27802;SDS011;15182;48.174;11.562;2023-09-18T01:00:43;4.82;;;3.10;;
27802;SDS011;15182;48.174;11.562;2023-09-18T01:03:11;3.35;;;3.25;;
27802;SDS011;15182;48.174;11.562;2023-09-18T01:05:42;3.17;;;3.05;;
27802;SDS011;15182;48.174;11.562;2023-09-18T01:08:10;3.10;;;3.00;;
27802;SDS011;15182;48.174;11.562;2023-09-18T01:10:47;3.20;;;3.10;;
27802;SDS011;15182;48.174;11.562;2023-09-18T01:13:27;3.40;;;3.10;;
27802;SDS011;15182;48.174;11.562;2023-09-18T01:16:00;3.70;;;3.40;;
27802;SDS011;15182;48.174;11.562;2023-09-18T01:18:35;3.17;;;3.08;;
27802;SDS011;15182;48.174;11.562;2023-09-18T01:21:03;3.28;;;3.08;;
27802;SDS011;15182;48.174;11.562;2023-09-18T01:23:32;3.13;;;3.03;;
27802;SDS011;15182;48.174;11.562;2023-09-18T01:26:00;3.00;;;3.00;;
27802;SDS011;15182;48.174;11.562;2023-09-18T01:28:28;3.25;;;3.20;;
27802;SDS011;15182;48.174;11.562;2023-09-18T01:30:56;2.90;;;2.80;;
27802;SDS011;15182;48.174;11.562;2023-09-18T01:33:24;2.97;;;2.97;;
27802;SDS011;15182;48.174;11.562;2023-09-18T01:35:55;3.30;;;3.08;;
27802;SDS011;15182;48.174;11.562;2023-09-18T01:38:25;2.90;;;2.80;;
27802;SDS011;15182;48.174;11.562;2023-09-18T01:40:55;4.60;;;2.97;;
27802;SDS011;15182;48.174;11.562;2023-09-18T01:43:25;2.83;;;2.72;;
27802;SDS011;15182;48.174;11.562;2023-09-18T01:45:53;3.50;;;3.28;;
27802;SDS011;15182;48.174;11.562;2023-09-18T01:48:23;3.10;;;3.00;;
27802;SDS011;15182;48.174;11.562;2023-09-18T01:50:51;2.78;;;2.67;;
27802;SDS011;15182;48.174;11.562;2023-09-18T01:53:19;3.50;;;3.03;;
27802;SDS011;15182;48.174;11.562;2023-09-18T01:55:47;3.90;;;2.67;;
27802;SDS011;15182;48.174;11.562;2023-09-18T01:58:16;3.25;;;3.08;;
27802;SDS011;15182;48.174;11.562;2023-09-18T02:00:44;3.70;;;3.05;;
27802;SDS011;15182;48.174;11.562;2023-09-18T02:03:12;3.00;;;2.80;;
27802;SDS011;15182;48.174;11.562;2023-09-18T02:05:40;4.60;;;3.00;;
27802;SDS011;15182;48.174;11.562;2023-09-18T02:08:08;3.00;;;2.83;;
27802;SDS011;15182;48.174;11.562;2023-09-18T02:10:36;2.70;;;2.65;;
27802;SDS011;15182;48.174;11.562;2023-09-18T02:13:04;2.55;;;2.45;;
27802;SDS011;15182;48.174;11.562;2023-09-18T02:15:35;2.88;;;2.78;;
27802;SDS011;15182;48.174;11.562;2023-09-18T02:18:04;2.90;;;2.70;;
27802;SDS011;15182;48.174;11.562;2023-09-18T02:20:39;2.70;;;2.70;;
27802;SDS011;15182;48.174;11.562;2023-09-18T02:23:08;2.83;;;2.72;;
27802;SDS011;15182;48.174;11.562;2023-09-18T02:25:35;2.90;;;2.70;;
27802;SDS011;15182;48.174;11.562;2023-09-18T02:28:03;2.88;;;2.78;;
27802;SDS011;15182;48.174;11.562;2023-09-18T02:30:33;2.53;;;2.53;;
27802;SDS011;15182;48.174;11.562;2023-09-18T02:33:01;2.83;;;2.65;;
27802;SDS011;15182;48.174;11.562;2023-09-18T02:35:30;2.85;;;2.72;;
27802;SDS011;15182;48.174;11.562;2023-09-18T02:37:58;2.58;;;2.47;;
27802;SDS011;15182;48.174;11.562;2023-09-18T02:40:28;2.72;;;2.63;;
27802;SDS011;15182;48.174;11.562;2023-09-18T02:42:55;2.88;;;2.78;;
27802;SDS011;15182;48.174;11.562;2023-09-18T02:45:23;3.28;;;3.08;;
27802;SDS011;15182;48.174;11.562;2023-09-18T02:47:53;3.50;;;3.30;;
27802;SDS011;15182;48.174;11.562;2023-09-18T02:50:20;3.20;;;2.80;;
27802;SDS011;15182;48.174;11.562;2023-09-18T02:52:48;3.15;;;2.83;;
27802;SDS011;15182;48.174;11.562;2023-09-18T02:55:16;3.08;;;2.88;;
27802;SDS011;15182;48.174;11.562;2023-09-18T02:57:44;4.50;;;2.88;;
27802;SDS011;15182;48.174;11.562;2023-09-18T03:00:13;3.38;;;3.28;;
27802;SDS011;15182;48.174;11.562;2023-09-18T03:02:41;3.22;;;3.13;;
27802;SDS011;15182;48.174;11.562;2023-09-18T03:05:11;2.97;;;2.80;;
27802;SDS011;15182;48.174;11.562;2023-09-18T03:07:39;2.90;;;2.80;;
27802;SDS011;15182;48.174;11.562;2023-09-18T03:10:07;2.88;;;2.75;;
27802;SDS011;15182;48.174;11.562;2023-09-18T03:12:40;2.90;;;2.80;;
27802;SDS011;15182;48.174;11.562;2023-09-18T03:15:08;3.28;;;2.97;;
27802;SDS011;15182;48.174;11.562;2023-09-18T03:17:37;2.65;;;2.45;;
27802;SDS011;15182;48.174;11.562;2023-09-18T03:20:07;3.33;;;3.22;;
27802;SDS011;15182;48.174;11.562;2023-09-18T03:22:37;2.30;;;2.30;;
27802;SDS011;15182;48.174;11.562;2023-09-18T03:25:06;2.67;;;2.63;;
27802;SDS011;15182;48.174;11.562;2023-09-18T03:27:35;3.17;;;2.90;;
27802;SDS011;15182;48.174;11.562;2023-09-18T03:30:04;3.00;;;2.80;;
27802;SDS011;15182;48.174;11.562;2023-09-18T03:32:35;2.53;;;2.53;;
27802;SDS011;15182;48.174;11.562;2023-09-18T03:35:03;3.10;;;2.97;;
27802;SDS011;15182;48.174;11.562;2023-09-18T03:37:32;2.40;;;2.40;;
27802;SDS011;15182;48.174;11.562;2023-09-18T03:40:01;3.00;;;2.85;;
27802;SDS011;15182;48.174;11.562;2023-09-18T03:42:29;3.10;;;2.78;;
27802;SDS011;15182;48.174;11.562;2023-09-18T03:44:57;3.10;;;2.90;;
27802;SDS011;15182;48.174;11.562;2023-09-18T03:47:25;4.03;;;2.55;;
27802;SDS011;15182;48.174;11.562;2023-09-18T03:49:53;3.08;;;2.70;;
27802;SDS011;15182;48.174;11.562;2023-09-18T03:52:21;3.22;;;2.88;;
27802;SDS011;15182;48.174;11.562;2023-09-18T03:54:49;2.85;;;2.75;;
27802;SDS011;15182;48.174;11.562;2023-09-18T03:57:18;3.10;;;2.80;;
27802;SDS011;15182;48.174;11.562;2023-09-18T03:59:46;2.60;;;2.50;;
27802;SDS011;15182;48.174;11.562;2023-09-18T04:02:14;3.28;;;3.05;;
27802;SDS011;15182;48.174;11.562;2023-09-18T04:04:42;3.55;;;3.17;;
27802;SDS011;15182;48.174;11.562;2023-09-18T04:07:10;2.95;;;2.88;;
27802;SDS011;15182;48.174;11.562;2023-09-18T04:09:42;2.92;;;2.80;;
27802;SDS011;15182;48.174;11.562;2023-09-18T04:12:10;3.15;;;3.00;;
27802;SDS011;15182;48.174;11.562;2023-09-18T04:14:39;3.40;;;3.30;;
27802;SDS011;15182;48.174;11.562;2023-09-18T04:17:07;2.65;;;2.60;;
27802;SDS011;15182;48.174;11.562;2023-09-18T04:19:35;3.20;;;3.15;;
27802;SDS011;15182;48.174;11.562;2023-09-18T04:22:03;3.60;;;3.30;;
27802;SDS011;15182;48.174;11.562;2023-09-18T04:24:31;2.90;;;2.80;;
27802;SDS011;15182;48.174;11.562;2023-09-18T04:27:00;3.15;;;3.05;;
27802;SDS011;15182;48.174;11.562;2023-09-18T04:29:29;3.38;;;3.15;;
27802;SDS011;15182;48.174;11.562;2023-09-18T04:31:58;3.08;;;3.03;;
27802;SDS011;15182;48.174;11.562;2023-09-18T04:34:27;2.92;;;2.83;;
27802;SDS011;15182;48.174;11.562;2023-09-18T04:36:55;3.55;;;3.25;;
27802;SDS011;15182;48.174;11.562;2023-09-18T04:39:23;3.40;;;3.20;;
27802;SDS011;15182;48.174;11.562;2023-09-18T04:41:51;4.80;;;2.70;;
27802;SDS011;15182;48.174;11.562;2023-09-18T04:44:19;2.92;;;2.83;;
27802;SDS011;15182;48.174;11.562;2023-09-18T04:46:47;2.90;;;2.80;;
27802;SDS011;15182;48.174;11.562;2023-09-18T04:49:16;3.13;;;3.03;;
27802;SDS011;15182;48.174;11.562;2023-09-18T04:51:44;3.63;;;2.95;;
27802;SDS011;15182;48.174;11.562;2023-09-18T04:54:12;3.50;;;3.10;;
27802;SDS011;15182;48.174;11.562;2023-09-18T04:56:41;3.08;;;2.88;;
27802;SDS011;15182;48.174;11.562;2023-09-18T04:59:09;3.92;;;3.55;;
27802;SDS011;15182;48.174;11.562;2023-09-18T05:01:37;4.65;;;2.83;;
27802;SDS011;15182;48.174;11.562;2023-09-18T05:04:05;3.15;;;2.97;;
27802;SDS011;15182;48.174;11.562;2023-09-18T05:06:34;2.75;;;2.65;;
27802;SDS011;15182;48.174;11.562;2023-09-18T05:09:04;3.50;;;3.20;;
27802;SDS011;15182;48.174;11.562;2023-09-18T05:11:32;2.95;;;2.85;;
27802;SDS011;15182;48.174;11.562;2023-09-18T05:14:00;3.00;;;2.80;;
27802;SDS011;15182;48.174;11.562;2023-09-18T05:16:28;5.22;;;3.22;;
27802;SDS011;15182;48.174;11.562;2023-09-18T05:18:56;3.00;;;2.83;;
27802;SDS011;15182;48.174;11.562;2023-09-18T05:21:25;3.00;;;2.90;;
27802;SDS011;15182;48.174;11.562;2023-09-18T05:23:54;3.10;;;2.90;;
27802;SDS011;15182;48.174;11.562;2023-09-18T05:26:22;3.55;;;3.35;;
27802;SDS011;15182;48.174;11.562;2023-09-18T05:28:50;3.22;;;3.13;;
27802;SDS011;15182;48.174;11.562;2023-09-18T05:31:19;3.10;;;3.00;;
27802;SDS011;15182;48.174;11.562;2023-09-18T05:33:47;3.25;;;2.92;;
27802;SDS011;15182;48.174;11.562;2023-09-18T05:36:15;3.10;;;2.90;;
27802;SDS011;15182;48.174;11.562;2023-09-18T05:38:43;3.95;;;2.75;;
27802;SDS011;15182;48.174;11.562;2023-09-18T05:41:15;3.30;;;3.10;;
27802;SDS011;15182;48.174;11.562;2023-09-18T05:43:43;3.00;;;2.90;;
27802;SDS011;15182;48.174;11.562;2023-09-18T05:46:12;3.00;;;2.90;;
27802;SDS011;15182;48.174;11.562;2023-09-18T05:48:40;3.28;;;3.17;;
27802;SDS011;15182;48.174;11.562;2023-09-18T05:51:08;6.50;;;3.28;;
27802;SDS011;15182;48.174;11.562;2023-09-18T05:53:35;3.33;;;3.05;;
27802;SDS011;15182;48.174;11.562;2023-09-18T05:56:04;7.35;;;3.10;;
27802;SDS011;15182;48.174;11.562;2023-09-18T05:58:36;4.22;;;3.88;;
27802;SDS011;15182;48.174;11.562;2023-09-18T06:01:06;4.25;;;3.80;;
27802;SDS011;15182;48.174;11.562;2023-09-18T06:03:34;3.70;;;3.47;;
27802;SDS011;15182;48.174;11.562;2023-09-18T06:06:02;3.67;;;3.50;;
27802;SDS011;15182;48.174;11.562;2023-09-18T06:08:30;3.67;;;3.47;;
27802;SDS011;15182;48.174;11.562;2023-09-18T06:10:59;3.67;;;3.47;;
27802;SDS011;15182;48.174;11.562;2023-09-18T06:13:27;5.20;;;3.17;;
27802;SDS011;15182;48.174;11.562;2023-09-18T06:15:56;9.88;;;3.42;;
27802;SDS011;15182;48.174;11.562;2023-09-18T06:18:24;10.40;;;3.30;;
27802;SDS011;15182;48.174;11.562;2023-09-18T06:20:52;3.65;;;3.38;;
27802;SDS011;15182;48.174;11.562;2023-09-18T06:23:20;3.25;;;2.95;;
27802;SDS011;15182;48.174;11.562;2023-09-18T06:25:48;3.63;;;3.28;;
27802;SDS011;15182;48.174;11.562;2023-09-18T06:28:21;3.55;;;3.28;;
27802;SDS011;15182;48.174;11.562;2023-09-18T06:30:49;3.35;;;3.15;;
27802;SDS011;15182;48.174;11.562;2023-09-18T06:33:18;3.45;;;3.00;;
27802;SDS011;15182;48.174;11.562;2023-09-18T06:35:46;3.47;;;3.20;;
27802;SDS011;15182;48.174;11.562;2023-09-18T06:38:14;7.63;;;3.63;;
27802;SDS011;15182;48.174;11.562;2023-09-18T06:40:42;3.40;;;3.20;;
27802;SDS011;15182;48.174;11.562;2023-09-18T06:43:10;3.08;;;2.92;;
27802;SDS011;15182;48.174;11.562;2023-09-18T06:45:38;4.38;;;3.50;;
27802;SDS011;15182;48.174;11.562;2023-09-18T06:48:06;8.50;;;3.28;;
27802;SDS011;15182;48.174;11.562;2023-09-18T06:50:35;3.13;;;2.90;;
27802;SDS011;15182;48.174;11.562;2023-09-18T06:53:04;3.00;;;2.90;;
27802;SDS011;15182;48.174;11.562;2023-09-18T06:55:32;5.40;;;3.28;;
27802;SDS011;15182;48.174;11.562;2023-09-18T06:58:00;3.70;;;3.45;;
27802;SDS011;15182;48.174;11.562;2023-09-18T07:00:28;3.40;;;3.20;;
27802;SDS011;15182;48.174;11.562;2023-09-18T07:02:56;6.03;;;3.22;;
27802;SDS011;15182;48.174;11.562;2023-09-18T07:05:24;3.25;;;3.05;;
27802;SDS011;15182;48.174;11.562;2023-09-18T07:07:53;3.85;;;3.55;;
27802;SDS011;15182;48.174;11.562;2023-09-18T07:10:23;5.57;;;2.78;;
27802;SDS011;15182;48.174;11.562;2023-09-18T07:12:50;3.90;;;3.10;;
27802;SDS011;15182;48.174;11.562;2023-09-18T07:15:18;3.72;;;3.45;;
27802;SDS011;15182;48.174;11.562;2023-09-18T07:17:46;3.72;;;3.20;;
27802;SDS011;15182;48.174;11.562;2023-09-18T07:20:14;3.30;;;3.10;;
27802;SDS011;15182;48.174;11.562;2023-09-18T07:22:44;3.70;;;3.50;;
27802;SDS011;15182;48.174;11.562;2023-09-18T07:25:15;3.00;;;2.90;;
27802;SDS011;15182;48.174;11.562;2023-09-18T07:27:43;6.57;;;3.15;;
27802;SDS011;15182;48.174;11.562;2023-09-18T07:30:12;5.53;;;3.50;;
27802;SDS011;15182;48.174;11.562;2023-09-18T07:32:42;3.72;;;3.58;;
27802;SDS011;15182;48.174;11.562;2023-09-18T07:35:10;3.72;;;3.47;;
27802;SDS011;15182;48.174;11.562;2023-09-18T07:37:39;7.80;;;3.30;;
27802;SDS011;15182;48.174;11.562;2023-09-18T07:40:07;3.63;;;3.50;;
27802;SDS011;15182;48.174;11.562;2023-09-18T07:42:37;3.60;;;3.40;;
27802;SDS011;15182;48.174;11.562;2023-09-18T07:45:05;4.53;;;3.17;;
27802;SDS011;15182;48.174;11.562;2023-09-18T07:47:34;3.22;;;3.13;;
27802;SDS011;15182;48.174;11.562;2023-09-18T07:50:02;3.72;;;3.38;;
27802;SDS011;15182;48.174;11.562;2023-09-18T07:52:30;3.40;;;3.30;;
27802;SDS011;15182;48.174;11.562;2023-09-18T07:54:58;4.35;;;3.65;;
27802;SDS011;15182;48.174;11.562;2023-09-18T07:57:26;3.60;;;3.50;;
27802;SDS011;15182;48.174;11.562;2023-09-18T07:59:57;4.20;;;4.00;;
27802;SDS011;15182;48.174;11.562;2023-09-18T08:02:37;4.10;;;3.80;;
27802;SDS011;15182;48.174;11.562;2023-09-18T08:05:05;3.45;;;3.20;;
27802;SDS011;15182;48.174;11.562;2023-09-18T08:07:34;3.90;;;3.50;;
27802;SDS011;15182;48.174;11.562;2023-09-18T08:10:03;3.60;;;3.30;;
27802;SDS011;15182;48.174;11.562;2023-09-18T08:12:34;3.88;;;3.67;;
27802;SDS011;15182;48.174;11.562;2023-09-18T08:15:04;3.75;;;3.53;;
27802;SDS011;15182;48.174;11.562;2023-09-18T08:17:33;4.13;;;3.83;;
27802;SDS011;15182;48.174;11.562;2023-09-18T08:20:01;4.07;;;3.85;;
27802;SDS011;15182;48.174;11.562;2023-09-18T08:22:36;3.92;;;3.53;;
27802;SDS011;15182;48.174;11.562;2023-09-18T08:25:04;7.28;;;3.53;;
27802;SDS011;15182;48.174;11.562;2023-09-18T08:27:36;4.18;;;3.50;;
27802;SDS011;15182;48.174;11.562;2023-09-18T08:30:09;4.38;;;3.40;;
27802;SDS011;15182;48.174;11.562;2023-09-18T08:32:38;3.58;;;3.40;;
27802;SDS011;15182;48.174;11.562;2023-09-18T08:35:07;3.83;;;3.53;;
27802;SDS011;15182;48.174;11.562;2023-09-18T08:37:36;4.10;;;3.80;;
27802;SDS011;15182;48.174;11.562;2023-09-18T08:40:04;3.70;;;3.60;;
27802;SDS011;15182;48.174;11.562;2023-09-18T08:42:38;8.70;;;3.70;;
27802;SDS011;15182;48.174;11.562;2023-09-18T08:45:09;3.85;;;3.60;;
27802;SDS011;15182;48.174;11.562;2023-09-18T08:47:42;4.10;;;3.80;;
27802;SDS011;15182;48.174;11.562;2023-09-18T08:50:10;3.97;;;3.78;;
27802;SDS011;15182;48.174;11.562;2023-09-18T08:52:39;4.25;;;3.97;;
27802;SDS011;15182;48.174;11.562;2023-09-18T08:55:08;4.15;;;3.95;;
27802;SDS011;15182;48.174;11.562;2023-09-18T08:57:36;4.28;;;3.90;;
27802;SDS011;15182;48.174;11.562;2023-09-18T09:00:05;4.15;;;3.78;;
27802;SDS011;15182;48.174;11.562;2023-09-18T09:02:39;3.85;;;3.55;;
27802;SDS011;15182;48.174;11.562;2023-09-18T09:05:07;4.22;;;3.65;;
27802;SDS011;15182;48.174;11.562;2023-09-18T09:07:35;4.63;;;4.22;;
27802;SDS011;15182;48.174;11.562;2023-09-18T09:10:03;4.05;;;3.75;;
27802;SDS011;15182;48.174;11.562;2023-09-18T09:12:47;4.63;;;4.25;;
27802;SDS011;15182;48.174;11.562;2023-09-18T09:15:17;8.25;;;3.80;;
27802;SDS011;15182;48.174;11.562;2023-09-18T09:17:46;3.35;;;3.25;;
27802;SDS011;15182;48.174;11.562;2023-09-18T09:20:15;6.07;;;3.50;;
27802;SDS011;15182;48.174;11.562;2023-09-18T09:22:44;7.35;;;3.75;;
27802;SDS011;15182;48.174;11.562;2023-09-18T09:25:22;3.97;;;3.63;;
27802;SDS011;15182;48.174;11.562;2023-09-18T09:27:53;4.18;;;3.50;;
27802;SDS011;15182;48.174;11.562;2023-09-18T09:30:22;3.55;;;3.40;;
27802;SDS011;15182;48.174;11.562;2023-09-18T09:32:55;3.42;;;3.33;;
27802;SDS011;15182;48.174;11.562;2023-09-18T09:35:25;3.90;;;3.72;;
27802;SDS011;15182;48.174;11.562;2023-09-18T09:37:56;4.63;;;3.88;;
27802;SDS011;15182;48.174;11.562;2023-09-18T09:40:27;3.58;;;3.40;;
27802;SDS011;15182;48.174;11.562;2023-09-18T09:42:57;3.90;;;3.58;;
27802;SDS011;15182;48.174;11.562;2023-09-18T09:45:28;4.38;;;3.22;;
27802;SDS011;15182;48.174;11.562;2023-09-18T09:48:02;5.32;;;3.53;;
27802;SDS011;15182;48.174;11.562;2023-09-18T09:50:32;6.65;;;3.78;;
27802;SDS011;15182;48.174;11.562;2023-09-18T09:53:00;3.85;;;3.53;;
27802;SDS011;15182;48.174;11.562;2023-09-18T09:55:29;5.90;;;3.35;;
27802;SDS011;15182;48.174;11.562;2023-09-18T09:58:00;6.90;;;3.72;;
27802;SDS011;15182;48.174;11.562;2023-09-18T10:00:30;5.93;;;3.60;;
27802;SDS011;15182;48.174;11.562;2023-09-18T10:03:04;3.47;;;3.25;;
27802;SDS011;15182;48.174;11.562;2023-09-18T10:05:35;5.32;;;3.22;;
27802;SDS011;15182;48.174;11.562;2023-09-18T10:08:06;4.38;;;3.42;;
27802;SDS011;15182;48.174;11.562;2023-09-18T10:10:36;4.05;;;3.38;;
27802;SDS011;15182;48.174;11.562;2023-09-18T10:13:10;3.35;;;3.10;;
27802;SDS011;15182;48.174;11.562;2023-09-18T10:15:44;3.42;;;3.13;;
27802;SDS011;15182;48.174;11.562;2023-09-18T10:18:19;3.28;;;3.08;;
27802;SDS011;15182;48.174;11.562;2023-09-18T10:20:57;3.40;;;3.13;;
27802;SDS011;15182;48.174;11.562;2023-09-18T10:23:36;3.72;;;3.05;;
27802;SDS011;15182;48.174;11.562;2023-09-18T10:26:17;4.97;;;3.10;;
27802;SDS011;15182;48.174;11.562;2023-09-18T10:28:55;6.18;;;2.97;;
27802;SDS011;15182;48.174;11.562;2023-09-18T10:31:26;5.90;;;3.15;;
27802;SDS011;15182;48.174;11.562;2023-09-18T10:33:58;3.35;;;3.00;;
27802;SDS011;15182;48.174;11.562;2023-09-18T10:36:26;5.15;;;3.28;;
27802;SDS011;15182;48.174;11.562;2023-09-18T10:38:56;8.57;;;2.90;;
27802;SDS011;15182;48.174;11.562;2023-09-18T10:41:25;8.10;;;3.78;;
27802;SDS011;15182;48.174;11.562;2023-09-18T10:43:53;7.07;;;3.10;;
27802;SDS011;15182;48.174;11.562;2023-09-18T10:46:25;6.72;;;2.70;;
27802;SDS011;15182;48.174;11.562;2023-09-18T10:48:53;14.02;;;2.78;;
27802;SDS011;15182;48.174;11.562;2023-09-18T10:51:24;3.10;;;2.38;;
27802;SDS011;15182;48.174;11.562;2023-09-18T10:53:53;2.70;;;2.47;;
27802;SDS011;15182;48.174;11.562;2023-09-18T10:56:23;8.05;;;2.75;;
27802;SDS011;15182;48.174;11.562;2023-09-18T10:58:58;5.03;;;2.50;;
27802;SDS011;15182;48.174;11.562;2023-09-18T11:01:29;10.65;;;2.78;;
27802;SDS011;15182;48.174;11.562;2023-09-18T11:03:59;8.02;;;2.30;;
27802;SDS011;15182;48.174;11.562;2023-09-18T11:06:29;3.63;;;2.70;;
27802;SDS011;15182;48.174;11.562;2023-09-18T11:09:00;4.80;;;2.58;;
27802;SDS011;15182;48.174;11.562;2023-09-18T11:11:30;2.80;;;2.60;;
27802;SDS011;15182;48.174;11.562;2023-09-18T11:14:01;9.65;;;2.67;;
27802;SDS011;15182;48.174;11.562;2023-09-18T11:16:33;5.88;;;2.67;;
27802;SDS011;15182;48.174;11.562;2023-09-18T11:19:07;12.23;;;2.88;;
27802;SDS011;15182;48.174;11.562;2023-09-18T11:21:37;7.20;;;2.50;;
27802;SDS011;15182;48.174;11.562;2023-09-18T11:24:06;4.53;;;2.50;;
27802;SDS011;15182;48.174;11.562;2023-09-18T11:26:37;2.65;;;2.28;;
27802;SDS011;15182;48.174;11.562;2023-09-18T11:29:08;6.50;;;2.47;;
27802;SDS011;15182;48.174;11.562;2023-09-18T11:31:41;9.50;;;2.25;;
27802;SDS011;15182;48.174;11.562;2023-09-18T11:34:13;4.32;;;2.38;;
27802;SDS011;15182;48.174;11.562;2023-09-18T11:36:43;8.30;;;2.58;;
27802;SDS011;15182;48.174;11.562;2023-09-18T11:39:11;7.13;;;2.10;;
27802;SDS011;15182;48.174;11.562;2023-09-18T11:41:40;4.05;;;2.03;;
27802;SDS011;15182;48.174;11.562;2023-09-18T11:47:09;8.98;;;2.10;;
27802;SDS011;15182;48.174;11.562;2023-09-18T11:49:46;3.28;;;1.85;;
27802;SDS011;15182;48.174;11.562;2023-09-18T11:52:20;4.93;;;1.70;;
27802;SDS011;15182;48.174;11.562;2023-09-18T11:54:50;6.18;;;2.03;;
27802;SDS011;15182;48.174;11.562;2023-09-18T11:57:18;2.22;;;2.13;;
27802;SDS011;15182;48.174;11.562;2023-09-18T11:59:46;10.48;;;1.63;;
27802;SDS011;15182;48.174;11.562;2023-09-18T12:02:24;4.10;;;1.33;;
27802;SDS011;15182;48.174;11.562;2023-09-18T12:04:57;1.73;;;1.63;;
27802;SDS011;15182;48.174;11.562;2023-09-18T12:07:25;2.75;;;2.05;;
27802;SDS011;15182;48.174;11.562;2023-09-18T12:09:53;2.85;;;1.50;;
27802;SDS011;15182;48.174;11.562;2023-09-18T12:12:21;5.93;;;1.70;;
27802;SDS011;15182;48.174;11.562;2023-09-18T12:14:51;2.55;;;1.67;;
27802;SDS011;15182;48.174;11.562;2023-09-18T12:17:19;1.73;;;1.63;;
27802;SDS011;15182;48.174;11.562;2023-09-18T12:19:51;4.90;;;1.95;;
27802;SDS011;15182;48.174;11.562;2023-09-18T12:22:28;1.42;;;1.42;;
27802;SDS011;15182;48.174;11.562;2023-09-18T12:25:10;4.55;;;1.70;;
27802;SDS011;15182;48.174;11.562;2023-09-18T12:27:39;1.95;;;1.30;;
27802;SDS011;15182;48.174;11.562;2023-09-18T12:30:08;1.45;;;1.40;;
27802;SDS011;15182;48.174;11.562;2023-09-18T12:32:37;2.70;;;1.38;;
27802;SDS011;15182;48.174;11.562;2023-09-18T12:35:06;1.55;;;1.50;;
27802;SDS011;15182;48.174;11.562;2023-09-18T12:37:38;2.60;;;1.38;;
27802;SDS011;15182;48.174;11.562;2023-09-18T12:40:07;3.83;;;1.50;;
27802;SDS011;15182;48.174;11.562;2023-09-18T12:42:49;2.30;;;1.48;;
27802;SDS011;15182;48.174;11.562;2023-09-18T12:45:19;3.67;;;1.90;;
27802;SDS011;15182;48.174;11.562;2023-09-18T12:47:47;5.35;;;1.40;;
27802;SDS011;15182;48.174;11.562;2023-09-18T12:50:15;1.65;;;1.50;;
27802;SDS011;15182;48.174;11.562;2023-09-18T12:52:45;3.50;;;1.50;;
27802;SDS011;15182;48.174;11.562;2023-09-18T12:55:22;1.58;;;1.58;;
27802;SDS011;15182;48.174;11.562;2023-09-18T12:57:51;2.20;;;1.48;;
27802;SDS011;15182;48.174;11.562;2023-09-18T13:00:20;1.73;;;1.50;;
27802;SDS011;15182;48.174;11.562;2023-09-18T13:02:52;1.60;;;1.60;;
27802;SDS011;15182;48.174;11.562;2023-09-18T13:05:22;1.73;;;1.55;;
27802;SDS011;15182;48.174;11.562;2023-09-18T13:07:53;4.18;;;1.70;;
27802;SDS011;15182;48.174;11.562;2023-09-18T13:10:21;1.70;;;1.60;;
27802;SDS011;15182;48.174;11.562;2023-09-18T13:12:49;1.73;;;1.20;;
27802;SDS011;15182;48.174;11.562;2023-09-18T13:15:24;1.73;;;1.15;;
27802;SDS011;15182;48.174;11.562;2023-09-18T13:17:54;1.40;;;1.30;;
27802;SDS011;15182;48.174;11.562;2023-09-18T13:20:25;1.75;;;1.65;;
27802;SDS011;15182;48.174;11.562;2023-09-18T13:22:56;1.70;;;1.60;;
27802;SDS011;15182;48.174;11.562;2023-09-18T13:25:27;1.20;;;1.20;;
27802;SDS011;15182;48.174;11.562;2023-09-18T13:27:57;1.45;;;1.30;;
27802;SDS011;15182;48.174;11.562;2023-09-18T13:30:25;1.58;;;1.27;;
27802;SDS011;15182;48.174;11.562;2023-09-18T13:33:01;1.23;;;1.23;;
27802;SDS011;15182;48.174;11.562;2023-09-18T13:35:32;1.85;;;1.27;;
27802;SDS011;15182;48.174;11.562;2023-09-18T13:38:01;1.15;;;1.15;;
27802;SDS011;15182;48.174;11.562;2023-09-18T13:40:31;1.20;;;1.20;;
27802;SDS011;15182;48.174;11.562;2023-09-18T13:42:59;3.92;;;1.30;;
27802;SDS011;15182;48.174;11.562;2023-09-18T13:45:27;1.40;;;1.27;;
27802;SDS011;15182;48.174;11.562;2023-09-18T13:47:55;1.40;;;1.40;;
27802;SDS011;15182;48.174;11.562;2023-09-18T13:50:23;1.05;;;1.02;;
27802;SDS011;15182;48.174;11.562;2023-09-18T13:52:51;2.20;;;1.70;;
27802;SDS011;15182;48.174;11.562;2023-09-18T13:55:21;1.33;;;1.23;;
27802;SDS011;15182;48.174;11.562;2023-09-18T13:57:49;1.38;;;1.27;;
27802;SDS011;15182;48.174;11.562;2023-09-18T14:00:17;1.52;;;1.42;;
27802;SDS011;15182;48.174;11.562;2023-09-18T14:02:45;1.45;;;1.45;;
27802;SDS011;15182;48.174;11.562;2023-09-18T14:05:12;2.03;;;1.35;;
27802;SDS011;15182;48.174;11.562;2023-09-18T14:07:40;2.25;;;1.40;;
27802;SDS011;15182;48.174;11.562;2023-09-18T14:10:08;1.40;;;1.30;;
27802;SDS011;15182;48.174;11.562;2023-09-18T14:12:39;1.20;;;1.10;;
27802;SDS011;15182;48.174;11.562;2023-09-18T14:15:08;1.30;;;1.30;;
27802;SDS011;15182;48.174;11.562;2023-09-18T14:17:37;1.20;;;1.20;;
27802;SDS011;15182;48.174;11.562;2023-09-18T14:20:06;1.52;;;1.42;;
27802;SDS011;15182;48.174;11.562;2023-09-18T14:22:35;1.20;;;1.20;;
27802;SDS011;15182;48.174;11.562;2023-09-18T14:25:04;1.40;;;1.30;;
27802;SDS011;15182;48.174;11.562;2023-09-18T14:27:32;2.47;;;1.38;;
27802;SDS011;15182;48.174;11.562;2023-09-18T14:30:02;1.27;;;1.27;;
27802;SDS011;15182;48.174;11.562;2023-09-18T14:32:32;2.58;;;1.50;;
27802;SDS011;15182;48.174;11.562;2023-09-18T14:35:01;1.60;;;1.50;;
27802;SDS011;15182;48.174;11.562;2023-09-18T14:37:31;1.25;;;1.25;;
27802;SDS011;15182;48.174;11.562;2023-09-18T14:39:58;1.52;;;1.52;;
27802;SDS011;15182;48.174;11.562;2023-09-18T14:42:26;1.50;;;1.40;;
27802;SDS011;15182;48.174;11.562;2023-09-18T14:44:54;1.50;;;1.50;;
27802;SDS011;15182;48.174;11.562;2023-09-18T14:47:23;1.60;;;1.50;;
27802;SDS011;15182;48.174;11.562;2023-09-18T14:49:51;1.65;;;1.58;;